createdAt,value
2022-10-18T00:00:04.789Z,102506.79
2022-10-18T00:02:33.566Z,102509.69
2022-10-18T00:05:03.641Z,102513.72
2022-10-18T00:07:33.318Z,102518.78
2022-10-18T00:10:02.863Z,102514.00
2022-10-18T00:12:34.988Z,102518.88
2022-10-18T00:15:06.117Z,102512.90
2022-10-18T00:17:36.761Z,102518.22
2022-10-18T00:20:07.484Z,102517.34
2022-10-18T00:22:38.567Z,102514.63
2022-10-18T00:25:09.109Z,102506.14
2022-10-18T00:27:38.365Z,102502.52
2022-10-18T00:30:08.598Z,102508.12
2022-10-18T00:32:41.983Z,102512.36
2022-10-18T00:35:11.339Z,102519.13
2022-10-18T00:37:40.594Z,102522.33
2022-10-18T00:40:10.951Z,102522.05
2022-10-18T00:42:40.321Z,102516.39
2022-10-18T00:45:18.635Z,102514.56
2022-10-18T00:47:52.043Z,102514.47
2022-10-18T00:50:22.135Z,102520.06
2022-10-18T00:52:54.633Z,102523.23
2022-10-18T00:55:24.164Z,102522.38
2022-10-18T01:00:23.409Z,102522.74
2022-10-18T01:02:53.241Z,102529.11
2022-10-18T01:05:22.568Z,102540.71
2022-10-18T01:08:01.090Z,102547.47
2022-10-18T01:10:42.492Z,102544.27
2022-10-18T01:13:26.798Z,102531.64
2022-10-18T01:15:59.378Z,102542.17
2022-10-18T01:18:35.444Z,102538.86
2022-10-18T01:21:19.892Z,102538.86
2022-10-18T01:24:21.305Z,102541.28
2022-10-18T01:27:08.878Z,102532.06
2022-10-18T01:29:47.243Z,102542.31
2022-10-18T01:32:31.848Z,102539.88
2022-10-18T01:35:04.115Z,102535.71
2022-10-18T01:37:34.556Z,102536.13
2022-10-18T01:40:06.671Z,102544.91
2022-10-18T01:42:36.466Z,102550.39
2022-10-18T01:45:07.891Z,102550.08
2022-10-18T01:47:37.661Z,102542.73
2022-10-18T01:50:08.200Z,102544.70
2022-10-18T01:52:39.155Z,102535.98
2022-10-18T01:55:09.027Z,102539.99
2022-10-18T01:57:53.379Z,102539.67
2022-10-18T02:00:27.868Z,102538.53
2022-10-18T02:03:15.640Z,102531.48
2022-10-18T02:06:04.755Z,102540.22
2022-10-18T02:08:56.870Z,102541.45
2022-10-18T02:11:27.517Z,102544.06
2022-10-18T02:13:59.939Z,102531.28
2022-10-18T02:16:44.329Z,102535.16
2022-10-18T02:19:22.115Z,102538.66
2022-10-18T02:21:52.791Z,102542.64
2022-10-18T02:24:22.886Z,102542.64
2022-10-18T02:26:52.140Z,102542.22
2022-10-18T02:29:21.539Z,102539.48
2022-10-18T02:31:54.288Z,102544.50
2022-10-18T02:34:32.022Z,102541.44
2022-10-18T02:37:02.725Z,102539.59
2022-10-18T02:39:35.310Z,102541.02
2022-10-18T02:42:06.615Z,102542.98
2022-10-18T02:44:36.240Z,102554.73
2022-10-18T02:47:07.022Z,102556.14
2022-10-18T02:49:36.474Z,102559.61
2022-10-18T02:52:05.999Z,102557.85
2022-10-18T02:54:35.241Z,102561.42
2022-10-18T02:57:04.620Z,102562.44
2022-10-18T02:59:33.920Z,102558.79
2022-10-18T03:02:03.193Z,102566.48
2022-10-18T03:04:32.634Z,102567.30
2022-10-18T03:07:01.883Z,102568.23
2022-10-18T03:09:31.270Z,102564.50
2022-10-18T03:12:01.051Z,102561.27
2022-10-18T03:14:30.435Z,102562.20
2022-10-18T03:16:59.964Z,102560.72
2022-10-18T03:19:29.251Z,102559.16
2022-10-18T03:21:58.557Z,102564.89
2022-10-18T03:24:27.801Z,102564.60
2022-10-18T03:26:57.249Z,102563.50
2022-10-18T03:29:26.678Z,102565.55
2022-10-18T03:31:55.938Z,102568.55
2022-10-18T03:34:25.160Z,102560.55
2022-10-18T03:36:55.280Z,102557.27
2022-10-18T03:39:24.578Z,102552.50
2022-10-18T03:41:53.867Z,102550.75
2022-10-18T03:44:23.178Z,102547.97
2022-10-18T03:46:52.416Z,102551.45
2022-10-18T03:49:21.730Z,102547.56
2022-10-18T03:51:51.177Z,102542.05
2022-10-18T03:54:20.706Z,102552.78
2022-10-18T03:56:50.026Z,102552.45
2022-10-18T03:59:19.536Z,102553.68
2022-10-18T04:01:48.832Z,102550.03
2022-10-18T04:04:18.205Z,102547.79
2022-10-18T04:06:47.522Z,102550.38
2022-10-18T04:09:16.925Z,102544.96
2022-10-18T04:11:46.269Z,102547.33
2022-10-18T04:14:15.877Z,102544.30
2022-10-18T04:16:45.389Z,102559.92
2022-10-18T04:19:15.053Z,102560.17
2022-10-18T04:21:44.319Z,102555.75
2022-10-18T04:24:13.825Z,102555.70
2022-10-18T04:26:43.128Z,102558.41
2022-10-18T04:29:12.443Z,102555.17
2022-10-18T04:31:41.862Z,102564.62
2022-10-18T04:34:11.920Z,102563.48
2022-10-18T04:36:41.365Z,102563.19
2022-10-18T04:39:10.741Z,102558.61
2022-10-18T04:41:40.215Z,102551.17
2022-10-18T04:44:09.560Z,102549.81
2022-10-18T04:46:38.810Z,102561.66
2022-10-18T04:49:08.159Z,102559.53
2022-10-18T04:51:38.180Z,102559.05
2022-10-18T04:54:07.405Z,102571.35
2022-10-18T04:56:36.667Z,102573.46
2022-10-18T04:59:06.033Z,102566.19
2022-10-18T05:01:35.460Z,102566.25
2022-10-18T05:04:04.950Z,102565.19
2022-10-18T05:06:34.397Z,102576.88
2022-10-18T05:09:03.641Z,102577.17
2022-10-18T05:11:33.014Z,102578.81
2022-10-18T05:14:02.388Z,102584.21
2022-10-18T05:16:32.485Z,102581.36
2022-10-18T05:19:02.075Z,102577.55
2022-10-18T05:21:31.321Z,102578.66
2022-10-18T05:24:00.673Z,102579.77
2022-10-18T05:26:29.957Z,102576.44
2022-10-18T05:28:59.591Z,102580.93
2022-10-18T05:31:29.217Z,102583.25
2022-10-18T05:33:58.832Z,102588.83
2022-10-18T05:36:28.667Z,102596.69
2022-10-18T05:39:00.956Z,102593.80
2022-10-18T05:41:29.126Z,102584.45
2022-10-18T05:43:58.474Z,102585.41
2022-10-18T05:46:27.934Z,102583.25
2022-10-18T05:48:57.329Z,102590.72
2022-10-18T05:51:26.659Z,102591.42
2022-10-18T05:53:56.082Z,102600.59
2022-10-18T05:56:25.512Z,102598.80
2022-10-18T05:58:54.809Z,102598.20
2022-10-18T06:01:24.355Z,102602.25
2022-10-18T06:03:53.596Z,102598.05
2022-10-18T06:06:22.891Z,102597.08
2022-10-18T06:08:52.229Z,102598.80
2022-10-18T06:11:21.987Z,102597.69
2022-10-18T06:13:52.875Z,102592.64
2022-10-18T06:16:23.204Z,102608.97
2022-10-18T06:18:55.226Z,102615.55
2022-10-18T06:21:25.572Z,102615.62
2022-10-18T06:23:57.368Z,102617.09
2022-10-18T06:26:28.063Z,102619.40
2022-10-18T06:28:57.529Z,102630.92
2022-10-18T06:31:26.794Z,102640.66
2022-10-18T06:33:58.320Z,102638.97
2022-10-18T06:36:27.930Z,102647.47
2022-10-18T06:38:57.778Z,102640.14
2022-10-18T06:41:27.177Z,102638.27
2022-10-18T06:43:58.629Z,102653.77
2022-10-18T06:46:28.047Z,102653.97
2022-10-18T06:48:57.626Z,102663.03
2022-10-18T06:51:26.887Z,102661.41
2022-10-18T06:54:13.307Z,102659.35
2022-10-18T06:56:27.208Z,102661.22
2022-10-18T06:58:56.542Z,102672.17
2022-10-18T07:01:26.039Z,102681.72
2022-10-18T07:03:56.161Z,102682.09
2022-10-18T07:06:26.291Z,102683.80
2022-10-18T07:08:55.606Z,102689.29
2022-10-18T07:11:26.244Z,102691.76
2022-10-18T07:13:59.956Z,102700.48
2022-10-18T07:16:29.478Z,102699.84
2022-10-18T07:18:58.894Z,102701.26
2022-10-18T07:21:28.670Z,102696.50
2022-10-18T07:23:58.282Z,102695.55
2022-10-18T07:26:33.249Z,102706.47
2022-10-18T07:29:08.756Z,102704.00
2022-10-18T07:31:41.849Z,102709.32
2022-10-18T07:34:13.195Z,102710.70
2022-10-18T07:36:42.956Z,102720.77
2022-10-18T07:39:12.200Z,102726.48
2022-10-18T07:41:41.436Z,102725.73
2022-10-18T07:44:11.010Z,102727.91
2022-10-18T07:46:40.256Z,102728.71
2022-10-18T07:49:09.629Z,102733.14
2022-10-18T07:51:39.060Z,102741.39
2022-10-18T07:54:09.337Z,102747.28
2022-10-18T07:56:38.572Z,102754.03
2022-10-18T07:59:07.836Z,102745.07
2022-10-18T08:01:37.161Z,102752.88
2022-10-18T08:04:08.440Z,102755.53
2022-10-18T08:06:37.727Z,102760.67
2022-10-18T08:09:07.246Z,102759.20
2022-10-18T08:11:36.515Z,102757.70
2022-10-18T08:14:05.909Z,102759.06
2022-10-18T08:16:35.213Z,102763.95
2022-10-18T08:19:04.555Z,102775.01
2022-10-18T08:21:33.866Z,102777.14
2022-10-18T08:24:03.329Z,102772.68
2022-10-18T08:26:32.606Z,102771.12
2022-10-18T08:31:33.099Z,102780.11
2022-10-18T08:34:02.456Z,102784.77
2022-10-18T08:36:32.023Z,102801.42
2022-10-18T08:39:02.826Z,102826.30
2022-10-18T08:41:41.131Z,102817.20
2022-10-18T08:44:22.027Z,102814.31
2022-10-18T08:47:04.030Z,102826.64
2022-10-18T08:49:40.856Z,102825.31
2022-10-18T08:52:22.111Z,102829.61
2022-10-18T08:55:11.332Z,102828.61
2022-10-18T08:57:40.714Z,102829.67
2022-10-18T09:00:19.146Z,102832.55
2022-10-18T09:03:06.371Z,102828.77
2022-10-18T09:05:53.181Z,102828.72
2022-10-18T09:08:34.690Z,102821.68
2022-10-18T09:11:13.216Z,102822.52
2022-10-18T09:13:48.402Z,102820.58
2022-10-18T09:16:22.735Z,102810.83
2022-10-18T09:19:02.647Z,102811.09
2022-10-18T09:21:55.497Z,102817.78
2022-10-18T09:24:40.075Z,102826.72
2022-10-18T09:27:19.979Z,102822.67
2022-10-18T09:30:01.403Z,102824.28
2022-10-18T09:32:49.301Z,102827.42
2022-10-18T09:35:24.467Z,102825.19
2022-10-18T09:37:57.018Z,102819.91
2022-10-18T09:40:28.906Z,102824.96
2022-10-18T09:43:13.233Z,102828.00
2022-10-18T09:45:45.626Z,102826.16
2022-10-18T09:48:21.130Z,102831.31
2022-10-18T09:50:58.885Z,102837.16
2022-10-18T09:53:46.382Z,102840.64
2022-10-18T09:56:21.839Z,102836.67
2022-10-18T09:58:52.132Z,102833.91
2022-10-18T10:01:24.737Z,102832.05
2022-10-18T10:03:54.524Z,102848.52
2022-10-18T10:06:32.487Z,102857.31
2022-10-18T10:09:10.589Z,102859.32
2022-10-18T10:11:44.384Z,102851.91
2022-10-18T10:14:27.958Z,102860.62
2022-10-18T10:17:02.316Z,102857.97
2022-10-18T10:19:40.831Z,102858.33
2022-10-18T10:22:11.977Z,102860.67
2022-10-18T10:24:49.555Z,102856.05
2022-10-18T10:27:24.945Z,102867.40
2022-10-18T10:29:58.180Z,102868.01
2022-10-18T10:32:31.501Z,102877.55
2022-10-18T10:35:00.957Z,102877.52
2022-10-18T10:37:36.422Z,102884.71
2022-10-18T10:40:19.837Z,102877.37
2022-10-18T10:43:08.810Z,102883.63
2022-10-18T10:45:32.759Z,102877.05
2022-10-18T10:48:08.427Z,102887.69
2022-10-18T10:50:53.112Z,102879.25
2022-10-18T10:53:33.588Z,102882.31
2022-10-18T10:56:03.317Z,102886.67
2022-10-18T10:58:38.462Z,102883.22
2022-10-18T11:01:27.621Z,102886.34
2022-10-18T11:04:00.337Z,102892.25
2022-10-18T11:06:41.932Z,102892.13
2022-10-18T11:09:31.260Z,102896.58
2022-10-18T11:12:03.750Z,102891.52
2022-10-18T11:14:36.176Z,102889.42
2022-10-18T11:17:42.653Z,102898.67
2022-10-18T11:20:15.384Z,102888.50
2022-10-18T11:22:56.944Z,102897.45
2022-10-18T11:25:29.463Z,102900.03
2022-10-18T11:28:05.451Z,102899.11
2022-10-18T11:30:50.109Z,102888.30
2022-10-18T11:33:38.308Z,102893.41
2022-10-18T11:36:05.546Z,102883.94
2022-10-18T11:38:40.678Z,102884.02
2022-10-18T11:41:33.271Z,102878.64
2022-10-18T11:44:04.991Z,102882.34
2022-10-18T11:46:37.559Z,102882.95
2022-10-18T11:49:26.643Z,102877.11
2022-10-18T11:52:17.340Z,102879.67
2022-10-18T11:54:52.557Z,102882.09
2022-10-18T11:57:34.303Z,102879.99
2022-10-18T12:00:16.632Z,102876.56
2022-10-18T12:03:08.403Z,102870.16
2022-10-18T12:05:39.845Z,102864.63
2022-10-18T12:08:12.226Z,102870.59
2022-10-18T12:10:46.803Z,102868.05
2022-10-18T12:13:21.980Z,102871.25
2022-10-18T12:15:52.366Z,102862.27
2022-10-18T12:18:24.285Z,102864.11
2022-10-18T12:20:56.903Z,102866.55
2022-10-18T12:23:32.399Z,102861.95
2022-10-18T12:26:07.344Z,102857.27
2022-10-18T12:28:51.718Z,102854.77
2022-10-18T12:31:31.118Z,102855.81
2022-10-18T12:34:03.814Z,102856.13
2022-10-18T12:36:56.057Z,102843.34
2022-10-18T12:39:38.747Z,102845.66
2022-10-18T12:41:59.765Z,102847.29
2022-10-18T12:44:34.210Z,102845.52
2022-10-18T12:47:05.722Z,102846.59
2022-10-18T12:49:40.274Z,102839.76
2022-10-18T12:52:21.394Z,102838.57
2022-10-18T12:55:12.822Z,102842.92
2022-10-18T12:57:57.745Z,102836.84
2022-10-18T13:00:36.196Z,102837.45
2022-10-18T13:03:19.313Z,102834.96
2022-10-18T13:05:53.903Z,102834.13
2022-10-18T13:08:37.144Z,102828.53
2022-10-18T13:11:12.904Z,102829.49
2022-10-18T13:14:11.247Z,102838.20
2022-10-18T13:16:54.206Z,102836.80
2022-10-18T13:19:29.440Z,102819.61
2022-10-18T13:22:23.460Z,102814.41
2022-10-18T13:25:00.563Z,102824.25
2022-10-18T13:27:39.010Z,102827.41
2022-10-18T13:30:32.587Z,102825.70
2022-10-18T13:33:30.965Z,102822.84
2022-10-18T13:36:12.874Z,102815.67
2022-10-18T13:38:47.778Z,102819.68
2022-10-18T13:41:19.995Z,102820.89
2022-10-18T13:44:07.487Z,102824.23
2022-10-18T13:46:45.545Z,102824.23
2022-10-18T13:49:24.276Z,102820.47
2022-10-18T13:52:16.414Z,102820.56
2022-10-18T13:54:57.952Z,102816.25
2022-10-18T13:57:36.579Z,102820.63
2022-10-18T14:00:26.999Z,102813.48
2022-10-18T14:03:51.509Z,102815.86
2022-10-18T14:06:11.630Z,102816.98
2022-10-18T14:08:59.038Z,102816.98
2022-10-18T14:11:46.155Z,102820.09
2022-10-18T14:14:17.896Z,102814.91
2022-10-18T14:16:49.035Z,102818.34
2022-10-18T14:19:37.537Z,102825.22
2022-10-18T14:22:27.749Z,102816.41
2022-10-18T14:24:59.118Z,102813.11
2022-10-18T14:27:32.533Z,102803.81
2022-10-18T14:30:17.290Z,102810.33
2022-10-18T14:32:48.937Z,102818.42
2022-10-18T14:35:37.368Z,102811.03
2022-10-18T14:37:54.737Z,102808.86
2022-10-18T14:40:39.047Z,102808.47
2022-10-18T14:43:12.051Z,102807.58
2022-10-18T14:45:42.602Z,102806.72
2022-10-18T14:48:20.833Z,102806.09
2022-10-18T14:50:54.982Z,102807.36
2022-10-18T14:53:25.164Z,102800.69
2022-10-18T14:56:00.939Z,102806.50
2022-10-18T14:58:30.654Z,102809.22
2022-10-18T15:01:00.483Z,102808.89
2022-10-18T15:03:32.983Z,102818.02
2022-10-18T15:06:05.188Z,102823.11
2022-10-18T15:08:42.302Z,102815.67
2022-10-18T15:11:14.583Z,102814.56
2022-10-18T15:17:31.387Z,102815.91
2022-10-18T15:20:06.199Z,102808.15
2022-10-18T15:22:35.786Z,102817.23
2022-10-18T15:25:15.118Z,102817.38
2022-10-18T15:27:47.165Z,102818.09
2022-10-18T15:30:22.667Z,102816.33
2022-10-18T15:32:55.045Z,102811.84
2022-10-18T15:35:27.591Z,102810.13
2022-10-18T15:37:56.807Z,102813.84
2022-10-18T15:40:35.181Z,102812.68
2022-10-18T15:43:07.375Z,102815.03
2022-10-18T15:45:39.399Z,102811.39
2022-10-18T15:48:13.581Z,102812.73
2022-10-18T15:50:45.346Z,102819.05
2022-10-18T15:53:34.798Z,102827.64
2022-10-18T15:56:32.236Z,102822.94
2022-10-18T15:59:04.959Z,102812.98
2022-10-18T16:01:38.117Z,102815.81
2022-10-18T16:04:13.546Z,102817.80
2022-10-18T16:06:42.992Z,102809.22
2022-10-18T16:09:17.800Z,102821.80
2022-10-18T16:11:52.825Z,102824.66
2022-10-18T16:14:21.460Z,102823.38
2022-10-18T16:16:53.318Z,102826.16
2022-10-18T16:19:22.990Z,102829.19
2022-10-18T16:21:53.889Z,102827.29
2022-10-18T16:24:23.613Z,102827.17
2022-10-18T16:26:54.079Z,102835.09
2022-10-18T16:29:29.236Z,102839.66
2022-10-18T16:31:58.704Z,102839.38
2022-10-18T16:34:28.562Z,102832.89
2022-10-18T16:36:57.853Z,102835.35
2022-10-18T16:39:28.441Z,102834.22
2022-10-18T16:41:57.867Z,102841.02
2022-10-18T16:44:27.408Z,102838.95
2022-10-18T16:46:56.660Z,102835.20
2022-10-18T16:49:27.131Z,102846.94
2022-10-18T16:51:56.641Z,102850.17
2022-10-18T16:54:26.018Z,102853.56
2022-10-18T16:56:55.378Z,102854.39
2022-10-18T16:59:30.201Z,102857.16
2022-10-18T17:02:01.130Z,102855.03
2022-10-18T17:04:30.410Z,102859.84
2022-10-18T17:06:59.884Z,102858.73
2022-10-18T17:09:29.256Z,102865.33
2022-10-18T17:11:58.742Z,102872.98
2022-10-18T17:14:28.079Z,102877.23
2022-10-18T17:16:57.645Z,102868.60
2022-10-18T17:19:26.920Z,102876.31
2022-10-18T17:22:01.565Z,102876.41
2022-10-18T17:24:27.207Z,102876.47
2022-10-18T17:26:56.688Z,102875.48
2022-10-18T17:29:26.106Z,102870.34
2022-10-18T17:31:55.398Z,102873.72
2022-10-18T17:34:24.748Z,102888.34
2022-10-18T17:36:54.514Z,102885.48
2022-10-18T17:39:27.246Z,102892.64
2022-10-18T17:41:56.551Z,102894.56
2022-10-18T17:44:26.004Z,102898.84
2022-10-18T17:46:55.360Z,102902.11
2022-10-18T17:49:24.791Z,102897.88
2022-10-18T17:51:54.087Z,102898.75
2022-10-18T17:54:23.611Z,102895.64
2022-10-18T17:56:53.859Z,102897.10
2022-10-18T17:59:24.035Z,102899.31
2022-10-18T18:01:54.012Z,102899.73
2022-10-18T18:04:24.262Z,102901.71
2022-10-18T18:06:53.808Z,102902.34
2022-10-18T18:09:23.081Z,102906.23
2022-10-18T18:11:53.728Z,102907.64
2022-10-18T18:14:22.979Z,102914.59
2022-10-18T18:16:52.309Z,102921.53
2022-10-18T18:19:22.203Z,102913.38
2022-10-18T18:21:53.469Z,102911.27
2022-10-18T18:24:24.738Z,102911.90
2022-10-18T18:26:55.304Z,102902.89
2022-10-18T18:29:25.901Z,102904.03
2022-10-18T18:31:55.570Z,102906.12
2022-10-18T18:34:25.099Z,102897.25
2022-10-18T18:36:54.902Z,102894.03
2022-10-18T18:39:26.262Z,102903.98
2022-10-18T18:41:55.633Z,102898.16
2022-10-18T18:44:25.237Z,102907.38
2022-10-18T18:46:54.928Z,102901.21
2022-10-18T18:49:24.399Z,102921.30
2022-10-18T18:51:54.418Z,102917.05
2022-10-18T18:54:24.949Z,102919.54
2022-10-18T18:56:54.355Z,102921.63
2022-10-18T18:59:23.613Z,102916.12
2022-10-18T19:01:53.289Z,102916.96
2022-10-18T19:04:22.651Z,102915.38
2022-10-18T19:06:52.174Z,102912.38
2022-10-18T19:09:26.175Z,102908.96
2022-10-18T19:11:56.945Z,102915.08
2022-10-18T19:14:26.562Z,102908.88
2022-10-18T19:16:59.742Z,102910.92
2022-10-18T19:19:30.913Z,102915.78
2022-10-18T19:22:01.990Z,102913.22
2022-10-18T19:24:32.346Z,102910.84
2022-10-18T19:27:04.982Z,102917.13
2022-10-18T19:29:34.596Z,102914.96
2022-10-18T19:32:07.528Z,102918.44
2022-10-18T19:34:37.182Z,102917.00
2022-10-18T19:37:06.772Z,102914.31
2022-10-18T19:39:36.642Z,102912.36
2022-10-18T19:42:10.605Z,102919.59
2022-10-18T19:44:41.128Z,102919.90
2022-10-18T19:47:12.552Z,102918.65
2022-10-18T19:49:43.519Z,102920.52
2022-10-18T19:52:13.150Z,102915.66
2022-10-18T19:54:42.798Z,102916.39
2022-10-18T19:57:12.210Z,102910.89
2022-10-18T20:02:18.083Z,102901.34
2022-10-18T20:04:47.534Z,102909.41
2022-10-18T20:07:17.027Z,102905.80
2022-10-18T20:09:48.022Z,102917.16
2022-10-18T20:12:17.471Z,102911.80
2022-10-18T20:14:47.123Z,102903.94
2022-10-18T20:17:16.789Z,102912.44
2022-10-18T20:19:46.145Z,102909.31
2022-10-18T20:22:15.628Z,102911.39
2022-10-18T20:24:45.021Z,102900.52
2022-10-18T20:27:14.561Z,102895.57
2022-10-18T20:29:43.899Z,102893.48
2022-10-18T20:32:13.191Z,102891.39
2022-10-18T20:34:42.596Z,102889.59
2022-10-18T20:37:11.914Z,102892.80
2022-10-18T20:39:41.255Z,102893.19
2022-10-18T20:42:10.545Z,102888.55
2022-10-18T20:44:41.457Z,102899.09
2022-10-18T20:47:11.081Z,102893.64
2022-10-18T20:49:40.586Z,102899.83
2022-10-18T20:52:10.159Z,102899.02
2022-10-18T20:54:39.601Z,102889.93
2022-10-18T20:57:09.211Z,102896.05
2022-10-18T20:59:38.741Z,102898.55
2022-10-18T21:02:08.517Z,102889.15
2022-10-18T21:04:40.085Z,102890.59
2022-10-18T21:07:09.090Z,102886.84
2022-10-18T21:09:38.530Z,102881.03
2022-10-18T21:12:08.068Z,102885.13
2022-10-18T21:14:37.749Z,102887.80
2022-10-18T21:17:07.280Z,102890.77
2022-10-18T21:19:37.030Z,102885.41
2022-10-18T21:22:06.533Z,102887.70
2022-10-18T21:24:36.177Z,102882.51
2022-10-18T21:27:05.512Z,102884.45
2022-10-18T21:29:35.469Z,102891.08
2022-10-18T21:32:04.907Z,102893.89
2022-10-18T21:34:34.341Z,102893.17
2022-10-18T21:37:03.663Z,102894.30
2022-10-18T21:39:32.951Z,102893.25
2022-10-18T21:42:02.260Z,102888.70
2022-10-18T21:44:31.887Z,102882.41
2022-10-18T21:47:01.473Z,102878.77
2022-10-18T21:49:32.644Z,102875.34
2022-10-18T21:52:06.669Z,102871.00
2022-10-18T21:54:36.105Z,102876.79
2022-10-18T21:57:05.692Z,102881.53
2022-10-18T21:59:34.936Z,102872.34
2022-10-18T22:02:04.891Z,102874.00
2022-10-18T22:04:35.851Z,102877.58
2022-10-18T22:07:05.537Z,102878.54
2022-10-18T22:09:36.549Z,102880.84
2022-10-18T22:12:06.776Z,102881.90
2022-10-18T22:14:38.417Z,102876.09
2022-10-18T22:17:07.920Z,102875.67
2022-10-18T22:19:37.550Z,102867.52
2022-10-18T22:22:07.017Z,102874.72
2022-10-18T22:27:05.900Z,102879.48
2022-10-18T22:29:35.540Z,102880.30
2022-10-18T22:32:05.050Z,102882.12
2022-10-18T22:34:34.311Z,102873.25
2022-10-18T22:37:03.628Z,102881.65
2022-10-18T22:39:33.192Z,102887.22
2022-10-18T22:42:02.785Z,102884.81
2022-10-18T22:44:32.131Z,102883.81
2022-10-18T22:47:01.728Z,102884.33
2022-10-18T22:49:33.603Z,102885.88
2022-10-18T22:52:03.069Z,102879.38
2022-10-18T22:54:32.603Z,102889.66
2022-10-18T22:57:01.992Z,102889.89
2022-10-18T22:59:31.275Z,102888.45
2022-10-18T23:02:00.878Z,102880.98
2022-10-18T23:04:30.131Z,102883.93
2022-10-18T23:06:59.467Z,102882.70
2022-10-18T23:09:28.920Z,102881.05
2022-10-18T23:11:58.331Z,102883.10
2022-10-18T23:14:27.775Z,102875.89
2022-10-18T23:16:57.216Z,102877.74
2022-10-18T23:19:26.476Z,102881.00
2022-10-18T23:21:55.862Z,102880.13
2022-10-18T23:24:25.478Z,102876.48
2022-10-18T23:26:54.847Z,102871.74
2022-10-18T23:29:24.557Z,102871.95
2022-10-18T23:31:53.935Z,102880.19
2022-10-18T23:34:23.581Z,102876.49
2022-10-18T23:36:53.019Z,102877.98
2022-10-18T23:39:22.364Z,102877.64
2022-10-18T23:41:51.790Z,102874.96
2022-10-18T23:44:21.130Z,102878.66
2022-10-18T23:46:50.501Z,102884.02
2022-10-18T23:49:19.976Z,102874.13
2022-10-18T23:51:49.243Z,102869.69
2022-10-18T23:54:18.559Z,102868.66
2022-10-18T23:56:48.206Z,102856.04
2022-10-18T23:59:17.719Z,102864.08
